sensor_id;sensor_type;location;lat;lon;timestamp;temperature;humidity
38488;DHT22;57384;51.986;4.458;2022-07-05T00:01:48;19.30;52.60
38488;DHT22;57384;51.986;4.458;2022-07-05T00:04:15;19.30;52.70
38488;DHT22;57384;51.986;4.458;2022-07-05T00:06:42;19.20;52.50
38488;DHT22;57384;51.986;4.458;2022-07-05T00:09:08;19.20;52.40
38488;DHT22;57384;51.986;4.458;2022-07-05T00:11:35;19.20;52.40
38488;DHT22;57384;51.986;4.458;2022-07-05T00:14:05;19.20;52.70
38488;DHT22;57384;51.986;4.458;2022-07-05T00:16:32;19.20;53.00
38488;DHT22;57384;51.986;4.458;2022-07-05T00:19:03;19.20;53.30
38488;DHT22;57384;51.986;4.458;2022-07-05T00:21:33;19.20;53.10
38488;DHT22;57384;51.986;4.458;2022-07-05T00:24:06;19.10;53.10
38488;DHT22;57384;51.986;4.458;2022-07-05T00:26:33;19.10;53.20
38488;DHT22;57384;51.986;4.458;2022-07-05T00:29:00;19.10;53.10
38488;DHT22;57384;51.986;4.458;2022-07-05T00:31:31;19.10;53.00
38488;DHT22;57384;51.986;4.458;2022-07-05T00:34:01;19.10;53.70
38488;DHT22;57384;51.986;4.458;2022-07-05T00:36:30;19.00;53.30
38488;DHT22;57384;51.986;4.458;2022-07-05T00:38:57;19.10;53.30
38488;DHT22;57384;51.986;4.458;2022-07-05T00:41:29;19.00;53.60
38488;DHT22;57384;51.986;4.458;2022-07-05T00:44:04;19.00;53.80
38488;DHT22;57384;51.986;4.458;2022-07-05T00:46:38;19.00;53.80
38488;DHT22;57384;51.986;4.458;2022-07-05T00:49:06;19.00;54.10
38488;DHT22;57384;51.986;4.458;2022-07-05T00:51:38;18.90;53.90
38488;DHT22;57384;51.986;4.458;2022-07-05T00:54:06;18.90;54.40
38488;DHT22;57384;51.986;4.458;2022-07-05T00:56:36;18.90;54.20
38488;DHT22;57384;51.986;4.458;2022-07-05T00:59:03;18.90;54.10
38488;DHT22;57384;51.986;4.458;2022-07-05T01:01:30;18.90;54.60
38488;DHT22;57384;51.986;4.458;2022-07-05T01:03:57;18.90;55.60
38488;DHT22;57384;51.986;4.458;2022-07-05T01:06:27;18.90;55.10
38488;DHT22;57384;51.986;4.458;2022-07-05T01:08:57;18.80;55.20
38488;DHT22;57384;51.986;4.458;2022-07-05T01:11:24;18.80;55.00
38488;DHT22;57384;51.986;4.458;2022-07-05T01:13:51;18.80;54.90
38488;DHT22;57384;51.986;4.458;2022-07-05T01:16:18;18.80;54.70
38488;DHT22;57384;51.986;4.458;2022-07-05T01:18:45;18.70;54.60
38488;DHT22;57384;51.986;4.458;2022-07-05T01:21:13;18.70;55.10
38488;DHT22;57384;51.986;4.458;2022-07-05T01:23:41;18.60;55.40
38488;DHT22;57384;51.986;4.458;2022-07-05T01:26:09;18.70;55.30
38488;DHT22;57384;51.986;4.458;2022-07-05T01:28:38;18.60;55.10
38488;DHT22;57384;51.986;4.458;2022-07-05T01:31:07;18.60;55.00
38488;DHT22;57384;51.986;4.458;2022-07-05T01:33:34;18.60;54.90
38488;DHT22;57384;51.986;4.458;2022-07-05T01:36:02;18.60;54.90
38488;DHT22;57384;51.986;4.458;2022-07-05T01:38:29;18.50;54.90
38488;DHT22;57384;51.986;4.458;2022-07-05T01:40:58;18.50;54.60
38488;DHT22;57384;51.986;4.458;2022-07-05T01:43:25;18.40;54.80
38488;DHT22;57384;51.986;4.458;2022-07-05T01:45:54;18.40;54.60
38488;DHT22;57384;51.986;4.458;2022-07-05T01:48:23;18.30;54.70
38488;DHT22;57384;51.986;4.458;2022-07-05T01:50:57;18.30;55.10
38488;DHT22;57384;51.986;4.458;2022-07-05T01:53:31;18.20;55.50
38488;DHT22;57384;51.986;4.458;2022-07-05T01:56:00;18.20;55.40
38488;DHT22;57384;51.986;4.458;2022-07-05T01:58:28;18.20;55.50
38488;DHT22;57384;51.986;4.458;2022-07-05T02:00:57;18.20;55.50
38488;DHT22;57384;51.986;4.458;2022-07-05T02:03:25;18.20;55.40
38488;DHT22;57384;51.986;4.458;2022-07-05T02:05:52;18.10;55.40
38488;DHT22;57384;51.986;4.458;2022-07-05T02:08:20;18.10;55.40
38488;DHT22;57384;51.986;4.458;2022-07-05T02:10:47;18.10;55.40
38488;DHT22;57384;51.986;4.458;2022-07-05T02:13:23;18.10;55.60
38488;DHT22;57384;51.986;4.458;2022-07-05T02:15:53;18.00;55.80
38488;DHT22;57384;51.986;4.458;2022-07-05T02:18:20;18.00;55.70
38488;DHT22;57384;51.986;4.458;2022-07-05T02:20:47;18.00;55.60
38488;DHT22;57384;51.986;4.458;2022-07-05T02:23:16;18.00;55.60
38488;DHT22;57384;51.986;4.458;2022-07-05T02:25:46;17.90;55.60
38488;DHT22;57384;51.986;4.458;2022-07-05T02:28:16;17.90;55.50
38488;DHT22;57384;51.986;4.458;2022-07-05T02:30:49;17.90;55.70
38488;DHT22;57384;51.986;4.458;2022-07-05T02:33:23;17.80;55.70
38488;DHT22;57384;51.986;4.458;2022-07-05T02:35:59;17.80;56.10
38488;DHT22;57384;51.986;4.458;2022-07-05T02:38:31;17.70;56.20
38488;DHT22;57384;51.986;4.458;2022-07-05T02:40:58;17.70;56.70
38488;DHT22;57384;51.986;4.458;2022-07-05T02:43:28;17.70;56.60
38488;DHT22;57384;51.986;4.458;2022-07-05T02:45:54;17.70;56.50
38488;DHT22;57384;51.986;4.458;2022-07-05T02:48:21;17.60;56.70
38488;DHT22;57384;51.986;4.458;2022-07-05T02:50:49;17.60;56.60
38488;DHT22;57384;51.986;4.458;2022-07-05T02:53:15;17.50;56.50
38488;DHT22;57384;51.986;4.458;2022-07-05T02:55:42;17.50;56.40
38488;DHT22;57384;51.986;4.458;2022-07-05T02:58:09;17.50;56.40
38488;DHT22;57384;51.986;4.458;2022-07-05T03:00:39;17.50;56.40
38488;DHT22;57384;51.986;4.458;2022-07-05T03:03:09;17.40;56.50
38488;DHT22;57384;51.986;4.458;2022-07-05T03:05:35;17.40;56.80
38488;DHT22;57384;51.986;4.458;2022-07-05T03:08:06;17.40;56.80
38488;DHT22;57384;51.986;4.458;2022-07-05T03:10:36;17.40;56.90
38488;DHT22;57384;51.986;4.458;2022-07-05T03:13:03;17.40;57.10
38488;DHT22;57384;51.986;4.458;2022-07-05T03:15:31;17.40;57.10
38488;DHT22;57384;51.986;4.458;2022-07-05T03:17:59;17.30;57.10
38488;DHT22;57384;51.986;4.458;2022-07-05T03:20:27;17.40;57.20
38488;DHT22;57384;51.986;4.458;2022-07-05T03:22:54;17.30;56.80
38488;DHT22;57384;51.986;4.458;2022-07-05T03:25:21;17.20;57.00
38488;DHT22;57384;51.986;4.458;2022-07-05T03:27:57;17.20;57.30
38488;DHT22;57384;51.986;4.458;2022-07-05T03:30:25;17.20;57.50
38488;DHT22;57384;51.986;4.458;2022-07-05T03:33:02;17.20;57.30
38488;DHT22;57384;51.986;4.458;2022-07-05T03:35:29;17.20;57.30
38488;DHT22;57384;51.986;4.458;2022-07-05T03:37:56;17.20;57.30
38488;DHT22;57384;51.986;4.458;2022-07-05T03:40:29;17.20;56.90
38488;DHT22;57384;51.986;4.458;2022-07-05T03:42:57;17.20;57.10
38488;DHT22;57384;51.986;4.458;2022-07-05T03:45:24;17.20;57.70
38488;DHT22;57384;51.986;4.458;2022-07-05T03:47:52;17.20;58.00
38488;DHT22;57384;51.986;4.458;2022-07-05T03:50:19;17.20;57.90
38488;DHT22;57384;51.986;4.458;2022-07-05T03:52:46;17.20;57.80
38488;DHT22;57384;51.986;4.458;2022-07-05T03:55:13;17.20;58.20
38488;DHT22;57384;51.986;4.458;2022-07-05T03:57:40;17.20;57.50
38488;DHT22;57384;51.986;4.458;2022-07-05T04:00:09;17.20;57.50
38488;DHT22;57384;51.986;4.458;2022-07-05T04:02:36;17.20;57.60
38488;DHT22;57384;51.986;4.458;2022-07-05T04:05:05;17.20;57.60
38488;DHT22;57384;51.986;4.458;2022-07-05T04:07:52;17.20;57.70
38488;DHT22;57384;51.986;4.458;2022-07-05T04:10:19;17.20;58.30
38488;DHT22;57384;51.986;4.458;2022-07-05T04:12:46;17.20;57.90
38488;DHT22;57384;51.986;4.458;2022-07-05T04:15:14;17.10;57.90
38488;DHT22;57384;51.986;4.458;2022-07-05T04:17:55;17.20;58.10
38488;DHT22;57384;51.986;4.458;2022-07-05T04:20:23;17.20;58.00
38488;DHT22;57384;51.986;4.458;2022-07-05T04:22:57;17.10;57.80
38488;DHT22;57384;51.986;4.458;2022-07-05T04:25:24;17.20;58.50
38488;DHT22;57384;51.986;4.458;2022-07-05T04:27:57;17.20;58.60
38488;DHT22;57384;51.986;4.458;2022-07-05T04:30:27;17.10;59.00
38488;DHT22;57384;51.986;4.458;2022-07-05T04:32:54;17.10;59.10
38488;DHT22;57384;51.986;4.458;2022-07-05T04:35:22;17.20;59.10
38488;DHT22;57384;51.986;4.458;2022-07-05T04:37:52;17.20;59.20
38488;DHT22;57384;51.986;4.458;2022-07-05T04:40:19;17.10;58.90
38488;DHT22;57384;51.986;4.458;2022-07-05T04:42:46;17.10;58.80
38488;DHT22;57384;51.986;4.458;2022-07-05T04:45:13;17.20;59.00
38488;DHT22;57384;51.986;4.458;2022-07-05T04:47:40;17.10;59.20
38488;DHT22;57384;51.986;4.458;2022-07-05T04:50:07;17.20;58.90
38488;DHT22;57384;51.986;4.458;2022-07-05T04:52:35;17.20;58.80
38488;DHT22;57384;51.986;4.458;2022-07-05T04:55:02;17.20;58.50
38488;DHT22;57384;51.986;4.458;2022-07-05T04:57:39;17.20;58.50
38488;DHT22;57384;51.986;4.458;2022-07-05T05:00:08;17.20;58.60
38488;DHT22;57384;51.986;4.458;2022-07-05T05:02:37;17.30;58.20
38488;DHT22;57384;51.986;4.458;2022-07-05T05:05:07;17.20;58.00
38488;DHT22;57384;51.986;4.458;2022-07-05T05:07:35;17.30;58.60
38488;DHT22;57384;51.986;4.458;2022-07-05T05:10:02;17.20;59.30
38488;DHT22;57384;51.986;4.458;2022-07-05T05:12:29;17.30;60.20
38488;DHT22;57384;51.986;4.458;2022-07-05T05:14:55;17.30;60.70
38488;DHT22;57384;51.986;4.458;2022-07-05T05:17:24;17.40;60.60
38488;DHT22;57384;51.986;4.458;2022-07-05T05:19:54;17.50;61.40
38488;DHT22;57384;51.986;4.458;2022-07-05T05:22:27;17.50;61.00
38488;DHT22;57384;51.986;4.458;2022-07-05T05:24:57;17.60;60.80
38488;DHT22;57384;51.986;4.458;2022-07-05T05:27:24;17.60;60.60
38488;DHT22;57384;51.986;4.458;2022-07-05T05:30:02;17.70;60.30
38488;DHT22;57384;51.986;4.458;2022-07-05T05:32:30;17.70;60.40
38488;DHT22;57384;51.986;4.458;2022-07-05T05:34:57;17.80;60.00
38488;DHT22;57384;51.986;4.458;2022-07-05T05:37:44;17.80;60.60
38488;DHT22;57384;51.986;4.458;2022-07-05T05:40:11;17.90;60.00
38488;DHT22;57384;51.986;4.458;2022-07-05T05:42:38;17.90;59.70
38488;DHT22;57384;51.986;4.458;2022-07-05T05:45:06;18.00;60.30
38488;DHT22;57384;51.986;4.458;2022-07-05T05:47:41;18.00;60.00
38488;DHT22;57384;51.986;4.458;2022-07-05T05:50:11;18.10;60.30
38488;DHT22;57384;51.986;4.458;2022-07-05T05:52:38;18.20;60.40
38488;DHT22;57384;51.986;4.458;2022-07-05T05:55:06;18.20;59.90
38488;DHT22;57384;51.986;4.458;2022-07-05T05:57:35;18.20;59.90
38488;DHT22;57384;51.986;4.458;2022-07-05T06:00:06;18.30;59.60
38488;DHT22;57384;51.986;4.458;2022-07-05T06:02:34;18.30;59.40
38488;DHT22;57384;51.986;4.458;2022-07-05T06:05:01;18.30;59.70
38488;DHT22;57384;51.986;4.458;2022-07-05T06:07:29;18.40;59.70
38488;DHT22;57384;51.986;4.458;2022-07-05T06:09:58;18.50;59.80
38488;DHT22;57384;51.986;4.458;2022-07-05T06:12:25;18.60;60.30
38488;DHT22;57384;51.986;4.458;2022-07-05T06:14:55;18.60;61.20
38488;DHT22;57384;51.986;4.458;2022-07-05T06:17:36;18.60;60.90
38488;DHT22;57384;51.986;4.458;2022-07-05T06:20:11;18.70;61.00
38488;DHT22;57384;51.986;4.458;2022-07-05T06:22:38;18.80;60.90
38488;DHT22;57384;51.986;4.458;2022-07-05T06:25:06;18.90;61.10
38488;DHT22;57384;51.986;4.458;2022-07-05T06:30:38;19.00;61.30
38488;DHT22;57384;51.986;4.458;2022-07-05T06:33:10;19.00;60.70
38488;DHT22;57384;51.986;4.458;2022-07-05T06:35:40;19.10;61.20
38488;DHT22;57384;51.986;4.458;2022-07-05T06:38:17;19.20;60.30
38488;DHT22;57384;51.986;4.458;2022-07-05T06:40:46;19.30;60.30
38488;DHT22;57384;51.986;4.458;2022-07-05T06:43:29;19.30;60.00
38488;DHT22;57384;51.986;4.458;2022-07-05T06:46:02;19.40;59.90
38488;DHT22;57384;51.986;4.458;2022-07-05T06:48:33;19.50;59.70
38488;DHT22;57384;51.986;4.458;2022-07-05T06:51:06;19.50;59.30
38488;DHT22;57384;51.986;4.458;2022-07-05T06:53:49;19.60;59.20
38488;DHT22;57384;51.986;4.458;2022-07-05T06:56:22;19.70;59.00
38488;DHT22;57384;51.986;4.458;2022-07-05T06:59:06;19.80;58.90
38488;DHT22;57384;51.986;4.458;2022-07-05T07:01:35;19.90;58.80
38488;DHT22;57384;51.986;4.458;2022-07-05T07:04:07;19.90;58.60
38488;DHT22;57384;51.986;4.458;2022-07-05T07:06:42;20.10;58.50
38488;DHT22;57384;51.986;4.458;2022-07-05T07:09:11;20.20;58.30
38488;DHT22;57384;51.986;4.458;2022-07-05T07:11:47;20.20;58.00
38488;DHT22;57384;51.986;4.458;2022-07-05T07:14:17;20.40;57.90
38488;DHT22;57384;51.986;4.458;2022-07-05T07:16:46;20.40;57.70
38488;DHT22;57384;51.986;4.458;2022-07-05T07:19:13;20.60;57.50
38488;DHT22;57384;51.986;4.458;2022-07-05T07:21:41;20.70;57.30
38488;DHT22;57384;51.986;4.458;2022-07-05T07:24:08;20.80;57.10
38488;DHT22;57384;51.986;4.458;2022-07-05T07:26:36;20.90;56.90
38488;DHT22;57384;51.986;4.458;2022-07-05T07:29:09;21.00;56.80
38488;DHT22;57384;51.986;4.458;2022-07-05T07:31:36;21.20;56.60
38488;DHT22;57384;51.986;4.458;2022-07-05T07:34:19;21.30;56.30
38488;DHT22;57384;51.986;4.458;2022-07-05T07:36:56;21.50;56.10
38488;DHT22;57384;51.986;4.458;2022-07-05T07:39:24;21.60;55.80
38488;DHT22;57384;51.986;4.458;2022-07-05T07:41:54;21.80;55.60
38488;DHT22;57384;51.986;4.458;2022-07-05T07:44:21;21.90;55.10
38488;DHT22;57384;51.986;4.458;2022-07-05T07:47:00;22.10;54.80
38488;DHT22;57384;51.986;4.458;2022-07-05T07:49:35;22.30;54.80
38488;DHT22;57384;51.986;4.458;2022-07-05T07:52:07;22.50;54.70
38488;DHT22;57384;51.986;4.458;2022-07-05T07:54:36;22.70;54.90
38488;DHT22;57384;51.986;4.458;2022-07-05T07:57:37;22.90;54.50
38488;DHT22;57384;51.986;4.458;2022-07-05T08:00:06;23.20;53.90
38488;DHT22;57384;51.986;4.458;2022-07-05T08:02:34;23.40;53.70
38488;DHT22;57384;51.986;4.458;2022-07-05T08:05:01;23.60;53.40
38488;DHT22;57384;51.986;4.458;2022-07-05T08:07:31;23.80;53.40
38488;DHT22;57384;51.986;4.458;2022-07-05T08:10:04;24.00;53.30
38488;DHT22;57384;51.986;4.458;2022-07-05T08:12:34;24.20;53.20
38488;DHT22;57384;51.986;4.458;2022-07-05T08:15:02;24.40;53.10
38488;DHT22;57384;51.986;4.458;2022-07-05T08:17:29;24.60;53.10
38488;DHT22;57384;51.986;4.458;2022-07-05T08:20:02;24.80;52.60
38488;DHT22;57384;51.986;4.458;2022-07-05T08:22:32;25.00;52.70
38488;DHT22;57384;51.986;4.458;2022-07-05T08:25:01;25.30;52.80
38488;DHT22;57384;51.986;4.458;2022-07-05T08:27:31;25.50;52.60
38488;DHT22;57384;51.986;4.458;2022-07-05T08:30:01;25.70;52.10
38488;DHT22;57384;51.986;4.458;2022-07-05T08:32:38;25.90;51.70
38488;DHT22;57384;51.986;4.458;2022-07-05T08:35:07;26.10;51.30
38488;DHT22;57384;51.986;4.458;2022-07-05T08:37:37;26.30;51.20
38488;DHT22;57384;51.986;4.458;2022-07-05T08:40:06;26.60;51.00
38488;DHT22;57384;51.986;4.458;2022-07-05T08:42:35;26.70;50.40
38488;DHT22;57384;51.986;4.458;2022-07-05T08:45:04;26.90;50.20
38488;DHT22;57384;51.986;4.458;2022-07-05T08:47:32;27.10;49.80
38488;DHT22;57384;51.986;4.458;2022-07-05T08:50:04;27.30;49.50
38488;DHT22;57384;51.986;4.458;2022-07-05T08:52:32;27.40;49.20
38488;DHT22;57384;51.986;4.458;2022-07-05T08:55:03;27.60;49.00
38488;DHT22;57384;51.986;4.458;2022-07-05T08:57:33;27.70;48.50
38488;DHT22;57384;51.986;4.458;2022-07-05T09:00:00;27.90;48.20
38488;DHT22;57384;51.986;4.458;2022-07-05T09:02:29;28.00;48.00
38488;DHT22;57384;51.986;4.458;2022-07-05T09:04:56;28.10;48.30
38488;DHT22;57384;51.986;4.458;2022-07-05T09:07:30;28.10;47.80
38488;DHT22;57384;51.986;4.458;2022-07-05T09:10:14;28.20;47.50
38488;DHT22;57384;51.986;4.458;2022-07-05T09:12:47;28.30;47.30
38488;DHT22;57384;51.986;4.458;2022-07-05T09:15:17;28.40;47.10
38488;DHT22;57384;51.986;4.458;2022-07-05T09:17:45;28.50;46.80
38488;DHT22;57384;51.986;4.458;2022-07-05T09:20:15;28.60;46.70
38488;DHT22;57384;51.986;4.458;2022-07-05T09:22:53;28.70;46.20
38488;DHT22;57384;51.986;4.458;2022-07-05T09:25:30;28.90;45.70
38488;DHT22;57384;51.986;4.458;2022-07-05T09:28:05;29.00;45.40
38488;DHT22;57384;51.986;4.458;2022-07-05T09:30:37;29.00;45.30
38488;DHT22;57384;51.986;4.458;2022-07-05T09:33:13;29.10;45.20
38488;DHT22;57384;51.986;4.458;2022-07-05T09:35:53;29.20;45.00
38488;DHT22;57384;51.986;4.458;2022-07-05T09:38:25;29.30;45.00
38488;DHT22;57384;51.986;4.458;2022-07-05T09:40:57;29.40;45.10
38488;DHT22;57384;51.986;4.458;2022-07-05T09:43:29;29.50;44.60
38488;DHT22;57384;51.986;4.458;2022-07-05T09:46:00;29.70;44.80
38488;DHT22;57384;51.986;4.458;2022-07-05T09:48:32;29.70;44.40
38488;DHT22;57384;51.986;4.458;2022-07-05T09:51:13;29.90;44.50
38488;DHT22;57384;51.986;4.458;2022-07-05T09:54:10;29.90;44.00
38488;DHT22;57384;51.986;4.458;2022-07-05T09:56:53;30.00;44.00
38488;DHT22;57384;51.986;4.458;2022-07-05T09:59:26;30.10;43.60
38488;DHT22;57384;51.986;4.458;2022-07-05T10:01:53;30.20;43.50
38488;DHT22;57384;51.986;4.458;2022-07-05T10:04:20;30.20;43.30
38488;DHT22;57384;51.986;4.458;2022-07-05T10:06:50;30.30;43.60
38488;DHT22;57384;51.986;4.458;2022-07-05T10:09:22;30.40;43.10
38488;DHT22;57384;51.986;4.458;2022-07-05T10:11:52;30.40;43.20
38488;DHT22;57384;51.986;4.458;2022-07-05T10:14:21;30.50;43.00
38488;DHT22;57384;51.986;4.458;2022-07-05T10:17:00;30.50;43.20
38488;DHT22;57384;51.986;4.458;2022-07-05T10:19:33;30.40;42.30
38488;DHT22;57384;51.986;4.458;2022-07-05T10:22:10;30.50;42.40
38488;DHT22;57384;51.986;4.458;2022-07-05T10:24:41;30.50;42.50
38488;DHT22;57384;51.986;4.458;2022-07-05T10:27:09;30.60;42.20
38488;DHT22;57384;51.986;4.458;2022-07-05T10:29:39;30.70;42.70
38488;DHT22;57384;51.986;4.458;2022-07-05T10:32:28;30.70;41.70
38488;DHT22;57384;51.986;4.458;2022-07-05T10:34:58;30.80;41.30
38488;DHT22;57384;51.986;4.458;2022-07-05T10:37:33;30.90;40.80
38488;DHT22;57384;51.986;4.458;2022-07-05T10:40:08;30.90;40.90
38488;DHT22;57384;51.986;4.458;2022-07-05T10:42:42;31.00;41.00
38488;DHT22;57384;51.986;4.458;2022-07-05T10:45:33;31.00;40.60
38488;DHT22;57384;51.986;4.458;2022-07-05T10:48:26;31.10;40.10
38488;DHT22;57384;51.986;4.458;2022-07-05T10:58:43;31.20;39.20
38488;DHT22;57384;51.986;4.458;2022-07-05T11:06:30;31.20;38.80
38488;DHT22;57384;51.986;4.458;2022-07-05T11:11:35;31.30;38.30
38488;DHT22;57384;51.986;4.458;2022-07-05T11:14:46;31.30;37.90
38488;DHT22;57384;51.986;4.458;2022-07-05T11:17:22;31.30;37.90
38488;DHT22;57384;51.986;4.458;2022-07-05T11:20:09;31.40;37.90
38488;DHT22;57384;51.986;4.458;2022-07-05T11:23:07;31.40;37.80
38488;DHT22;57384;51.986;4.458;2022-07-05T11:25:40;31.40;37.50
38488;DHT22;57384;51.986;4.458;2022-07-05T11:28:22;31.50;37.30
38488;DHT22;57384;51.986;4.458;2022-07-05T11:30:50;31.60;37.30
38488;DHT22;57384;51.986;4.458;2022-07-05T11:33:42;31.60;37.10
38488;DHT22;57384;51.986;4.458;2022-07-05T11:36:31;31.60;36.90
38488;DHT22;57384;51.986;4.458;2022-07-05T11:41:45;31.70;36.40
38488;DHT22;57384;51.986;4.458;2022-07-05T11:44:15;31.70;36.40
38488;DHT22;57384;51.986;4.458;2022-07-05T11:46:43;31.80;36.20
38488;DHT22;57384;51.986;4.458;2022-07-05T11:49:11;31.80;35.90
38488;DHT22;57384;51.986;4.458;2022-07-05T11:51:38;31.80;35.60
38488;DHT22;57384;51.986;4.458;2022-07-05T11:54:08;31.90;35.50
38488;DHT22;57384;51.986;4.458;2022-07-05T11:56:39;31.90;35.20
38488;DHT22;57384;51.986;4.458;2022-07-05T11:59:35;31.90;35.10
38488;DHT22;57384;51.986;4.458;2022-07-05T12:02:02;31.90;35.20
38488;DHT22;57384;51.986;4.458;2022-07-05T12:04:57;31.90;35.00
38488;DHT22;57384;51.986;4.458;2022-07-05T12:07:31;31.90;35.00
38488;DHT22;57384;51.986;4.458;2022-07-05T12:10:15;31.90;35.00
38488;DHT22;57384;51.986;4.458;2022-07-05T12:13:08;32.00;35.10
38488;DHT22;57384;51.986;4.458;2022-07-05T12:15:37;31.90;34.90
38488;DHT22;57384;51.986;4.458;2022-07-05T12:18:11;31.90;34.90
38488;DHT22;57384;51.986;4.458;2022-07-05T12:20:44;31.90;34.70
38488;DHT22;57384;51.986;4.458;2022-07-05T12:23:25;31.90;34.80
38488;DHT22;57384;51.986;4.458;2022-07-05T12:26:01;31.90;34.80
38488;DHT22;57384;51.986;4.458;2022-07-05T12:28:40;31.90;34.80
38488;DHT22;57384;51.986;4.458;2022-07-05T12:31:30;31.90;34.70
38488;DHT22;57384;51.986;4.458;2022-07-05T12:34:18;31.90;34.80
38488;DHT22;57384;51.986;4.458;2022-07-05T12:36:48;31.90;34.80
38488;DHT22;57384;51.986;4.458;2022-07-05T12:39:31;31.90;34.70
38488;DHT22;57384;51.986;4.458;2022-07-05T12:42:01;31.90;34.70
38488;DHT22;57384;51.986;4.458;2022-07-05T12:44:28;31.90;34.70
38488;DHT22;57384;51.986;4.458;2022-07-05T12:47:07;31.90;34.60
38488;DHT22;57384;51.986;4.458;2022-07-05T12:49:57;31.80;34.50
38488;DHT22;57384;51.986;4.458;2022-07-05T12:52:30;31.80;34.50
38488;DHT22;57384;51.986;4.458;2022-07-05T12:55:12;31.70;34.40
38488;DHT22;57384;51.986;4.458;2022-07-05T12:57:53;31.70;34.30
38488;DHT22;57384;51.986;4.458;2022-07-05T13:00:21;31.70;34.20
38488;DHT22;57384;51.986;4.458;2022-07-05T13:02:55;31.70;34.30
38488;DHT22;57384;51.986;4.458;2022-07-05T13:05:25;31.60;34.20
38488;DHT22;57384;51.986;4.458;2022-07-05T13:07:53;31.60;34.30
38488;DHT22;57384;51.986;4.458;2022-07-05T13:10:22;31.70;34.40
38488;DHT22;57384;51.986;4.458;2022-07-05T13:12:50;31.70;34.50
38488;DHT22;57384;51.986;4.458;2022-07-05T13:15:18;31.80;34.50
38488;DHT22;57384;51.986;4.458;2022-07-05T13:17:47;31.80;34.30
38488;DHT22;57384;51.986;4.458;2022-07-05T13:20:16;31.70;34.30
38488;DHT22;57384;51.986;4.458;2022-07-05T13:22:47;31.70;34.20
38488;DHT22;57384;51.986;4.458;2022-07-05T13:25:16;31.70;34.30
38488;DHT22;57384;51.986;4.458;2022-07-05T13:27:53;31.70;34.30
38488;DHT22;57384;51.986;4.458;2022-07-05T13:30:20;31.60;34.40
38488;DHT22;57384;51.986;4.458;2022-07-05T13:32:53;31.60;34.50
38488;DHT22;57384;51.986;4.458;2022-07-05T13:35:45;31.60;34.60
38488;DHT22;57384;51.986;4.458;2022-07-05T13:38:16;31.50;34.60
38488;DHT22;57384;51.986;4.458;2022-07-05T13:40:45;31.40;34.70
38488;DHT22;57384;51.986;4.458;2022-07-05T13:46:00;31.30;34.90
38488;DHT22;57384;51.986;4.458;2022-07-05T13:48:31;31.30;34.90
38488;DHT22;57384;51.986;4.458;2022-07-05T13:51:01;31.20;35.50
38488;DHT22;57384;51.986;4.458;2022-07-05T13:53:33;31.20;34.90
38488;DHT22;57384;51.986;4.458;2022-07-05T13:56:13;31.20;35.40
38488;DHT22;57384;51.986;4.458;2022-07-05T13:58:46;31.20;35.30
38488;DHT22;57384;51.986;4.458;2022-07-05T14:01:16;31.20;34.60
38488;DHT22;57384;51.986;4.458;2022-07-05T14:03:46;31.20;34.70
38488;DHT22;57384;51.986;4.458;2022-07-05T14:06:13;31.10;34.60
38488;DHT22;57384;51.986;4.458;2022-07-05T14:08:54;31.00;34.60
38488;DHT22;57384;51.986;4.458;2022-07-05T14:11:26;31.00;34.60
38488;DHT22;57384;51.986;4.458;2022-07-05T14:13:59;31.00;34.60
38488;DHT22;57384;51.986;4.458;2022-07-05T14:16:29;31.00;34.50
38488;DHT22;57384;51.986;4.458;2022-07-05T14:19:02;31.00;34.50
38488;DHT22;57384;51.986;4.458;2022-07-05T14:21:32;31.00;34.50
38488;DHT22;57384;51.986;4.458;2022-07-05T14:23:59;30.90;34.40
38488;DHT22;57384;51.986;4.458;2022-07-05T14:26:28;30.90;34.50
38488;DHT22;57384;51.986;4.458;2022-07-05T14:29:06;30.90;34.50
38488;DHT22;57384;51.986;4.458;2022-07-05T14:31:50;30.90;34.60
38488;DHT22;57384;51.986;4.458;2022-07-05T14:34:25;30.80;34.50
38488;DHT22;57384;51.986;4.458;2022-07-05T14:36:59;30.80;34.60
38488;DHT22;57384;51.986;4.458;2022-07-05T14:42:19;30.80;34.60
38488;DHT22;57384;51.986;4.458;2022-07-05T14:44:55;30.70;34.60
38488;DHT22;57384;51.986;4.458;2022-07-05T14:47:24;30.70;34.60
38488;DHT22;57384;51.986;4.458;2022-07-05T14:50:18;30.70;34.50
38488;DHT22;57384;51.986;4.458;2022-07-05T14:52:52;30.70;34.50
38488;DHT22;57384;51.986;4.458;2022-07-05T14:55:24;30.60;34.40
38488;DHT22;57384;51.986;4.458;2022-07-05T14:58:05;30.50;34.50
38488;DHT22;57384;51.986;4.458;2022-07-05T15:00:37;30.40;34.50
38488;DHT22;57384;51.986;4.458;2022-07-05T15:03:09;30.30;34.60
38488;DHT22;57384;51.986;4.458;2022-07-05T15:05:41;30.30;34.60
38488;DHT22;57384;51.986;4.458;2022-07-05T15:08:10;30.20;34.70
38488;DHT22;57384;51.986;4.458;2022-07-05T15:10:37;30.10;34.70
38488;DHT22;57384;51.986;4.458;2022-07-05T15:13:25;30.10;34.90
38488;DHT22;57384;51.986;4.458;2022-07-05T15:16:12;30.00;34.90
38488;DHT22;57384;51.986;4.458;2022-07-05T15:18:41;29.90;35.10
38488;DHT22;57384;51.986;4.458;2022-07-05T15:21:25;29.80;35.20
38488;DHT22;57384;51.986;4.458;2022-07-05T15:23:54;29.70;35.30
38488;DHT22;57384;51.986;4.458;2022-07-05T15:26:27;29.60;35.40
38488;DHT22;57384;51.986;4.458;2022-07-05T15:29:07;29.50;35.50
38488;DHT22;57384;51.986;4.458;2022-07-05T15:31:38;29.40;35.60
38488;DHT22;57384;51.986;4.458;2022-07-05T15:34:06;29.30;35.90
38488;DHT22;57384;51.986;4.458;2022-07-05T15:36:38;29.20;35.90
38488;DHT22;57384;51.986;4.458;2022-07-05T15:39:08;29.20;36.00
38488;DHT22;57384;51.986;4.458;2022-07-05T15:41:38;29.10;36.00
38488;DHT22;57384;51.986;4.458;2022-07-05T15:44:10;29.10;36.20
38488;DHT22;57384;51.986;4.458;2022-07-05T15:46:43;28.90;36.10
38488;DHT22;57384;51.986;4.458;2022-07-05T15:51:59;28.80;36.20
38488;DHT22;57384;51.986;4.458;2022-07-05T15:54:32;28.80;36.30
38488;DHT22;57384;51.986;4.458;2022-07-05T15:57:03;28.70;36.30
38488;DHT22;57384;51.986;4.458;2022-07-05T15:59:56;28.70;36.50
38488;DHT22;57384;51.986;4.458;2022-07-05T16:02:26;28.70;36.50
38488;DHT22;57384;51.986;4.458;2022-07-05T16:04:53;28.60;36.60
38488;DHT22;57384;51.986;4.458;2022-07-05T16:07:38;28.50;36.50
38488;DHT22;57384;51.986;4.458;2022-07-05T16:10:06;28.40;36.50
38488;DHT22;57384;51.986;4.458;2022-07-05T16:12:38;28.40;36.70
38488;DHT22;57384;51.986;4.458;2022-07-05T16:15:06;28.30;36.80
38488;DHT22;57384;51.986;4.458;2022-07-05T16:17:38;28.20;36.90
38488;DHT22;57384;51.986;4.458;2022-07-05T16:20:06;28.10;37.00
38488;DHT22;57384;51.986;4.458;2022-07-05T16:22:36;28.00;37.10
38488;DHT22;57384;51.986;4.458;2022-07-05T16:25:03;27.90;37.10
38488;DHT22;57384;51.986;4.458;2022-07-05T16:27:32;27.80;37.20
38488;DHT22;57384;51.986;4.458;2022-07-05T16:30:01;27.70;37.20